createdAt,value
2018-11-01T00:00:27.905Z,8.14
2018-11-01T00:01:27.824Z,8.01
2018-11-01T00:02:27.797Z,8.01
2018-11-01T00:03:27.666Z,7.99
2018-11-01T00:04:27.588Z,7.97
2018-11-01T00:05:27.509Z,7.96
2018-11-01T00:06:27.430Z,8.01
2018-11-01T00:07:27.352Z,7.99
2018-11-01T00:08:27.273Z,7.96
2018-11-01T00:09:27.195Z,8.04
2018-11-01T00:10:27.114Z,8.07
2018-11-01T00:11:27.036Z,8.12
2018-11-01T00:12:26.957Z,8.03
2018-11-01T00:13:26.879Z,7.93
2018-11-01T00:14:26.899Z,8.04
2018-11-01T00:15:26.720Z,8.01
2018-11-01T00:16:26.642Z,7.99
2018-11-01T00:17:26.563Z,8.00
2018-11-01T00:18:26.483Z,7.96
2018-11-01T00:19:26.405Z,7.93
2018-11-01T00:20:26.376Z,7.85
2018-11-01T00:21:26.248Z,7.73
2018-11-01T00:22:26.176Z,7.76
2018-11-01T00:23:26.089Z,7.72
2018-11-01T00:24:26.010Z,8.04
2018-11-01T00:25:25.932Z,8.17
2018-11-01T00:26:25.952Z,8.27
2018-11-01T00:27:25.774Z,8.42
2018-11-01T00:28:25.695Z,8.39
2018-11-01T00:29:25.615Z,8.43
2018-11-01T00:30:25.536Z,8.37
2018-11-01T00:31:25.458Z,8.27
2018-11-01T00:32:25.581Z,8.24
2018-11-01T00:33:25.299Z,8.27
2018-11-01T00:34:25.220Z,8.44
2018-11-01T00:35:25.140Z,8.62
2018-11-01T00:36:25.062Z,8.66
2018-11-01T00:37:24.984Z,8.80
2018-11-01T00:38:24.953Z,9.10
2018-11-01T00:39:24.826Z,9.00
2018-11-01T00:40:24.747Z,8.94
2018-11-01T00:41:24.667Z,8.94
2018-11-01T00:42:24.590Z,8.79
2018-11-01T00:43:24.509Z,8.88
2018-11-01T00:44:24.430Z,8.93
2018-11-01T00:45:24.352Z,9.05
2018-11-01T00:46:24.272Z,9.06
2018-11-01T00:47:24.194Z,9.17
2018-11-01T00:48:24.116Z,8.98
2018-11-01T00:49:24.037Z,8.94
2018-11-01T00:50:23.958Z,8.80
2018-11-01T00:51:23.880Z,8.76
2018-11-01T00:52:23.800Z,8.68
2018-11-01T00:53:23.723Z,8.73
2018-11-01T00:54:23.642Z,8.68
2018-11-01T00:55:23.564Z,8.48
2018-11-01T00:56:23.535Z,8.40
2018-11-01T00:57:23.407Z,8.30
2018-11-01T00:58:23.327Z,8.25
2018-11-01T00:59:23.250Z,8.17
2018-11-01T01:00:23.176Z,8.18
2018-11-01T01:01:23.092Z,8.12
2018-11-01T01:02:23.113Z,8.15
2018-11-01T01:03:22.934Z,8.12
2018-11-01T01:04:22.855Z,8.01
2018-11-01T01:05:22.778Z,8.07
2018-11-01T01:06:22.697Z,8.04
2018-11-01T01:07:22.620Z,8.09
2018-11-01T01:08:22.640Z,8.03
2018-11-01T01:09:22.461Z,8.03
2018-11-01T01:10:22.385Z,8.01
2018-11-01T01:11:22.306Z,7.86
2018-11-01T01:12:22.225Z,7.86
2018-11-01T01:13:22.148Z,7.88
2018-11-01T01:14:22.117Z,7.85
2018-11-01T01:15:21.988Z,7.72
2018-11-01T01:16:21.910Z,7.70
2018-11-01T01:17:21.832Z,7.68
2018-11-01T01:18:21.752Z,7.56
2018-11-01T01:19:21.673Z,7.49
2018-11-01T01:20:21.594Z,7.42
2018-11-01T01:21:21.515Z,7.47
2018-11-01T01:22:21.436Z,7.41
2018-11-01T01:23:21.357Z,7.37
2018-11-01T01:24:21.278Z,7.37
2018-11-01T01:25:21.201Z,7.37
2018-11-01T01:26:21.118Z,7.34
2018-11-01T01:27:21.039Z,7.35
2018-11-01T01:28:20.961Z,7.38
2018-11-01T01:29:20.882Z,7.29
2018-11-01T01:30:20.803Z,7.31
2018-11-01T01:31:20.724Z,7.30
2018-11-01T01:32:20.695Z,7.37
2018-11-01T01:33:20.566Z,7.35
2018-11-01T01:34:20.518Z,7.35
2018-11-01T01:35:20.405Z,7.26
2018-11-01T01:36:20.327Z,7.34
2018-11-01T01:37:20.349Z,7.37
2018-11-01T01:38:20.169Z,7.24
2018-11-01T01:39:20.088Z,7.16
2018-11-01T01:40:20.012Z,7.20
2018-11-01T01:41:19.930Z,7.16
2018-11-01T01:42:19.850Z,7.19
2018-11-01T01:43:19.771Z,7.12
2018-11-01T01:44:19.693Z,7.16
2018-11-01T01:45:19.619Z,7.12
2018-11-01T01:46:19.532Z,7.01
2018-11-01T01:47:19.453Z,7.13
2018-11-01T01:48:19.374Z,7.05
2018-11-01T01:49:19.296Z,7.05
2018-11-01T01:50:19.285Z,7.09
2018-11-01T01:51:19.135Z,7.12
2018-11-01T01:52:19.058Z,7.16
2018-11-01T01:53:18.977Z,7.19
2018-11-01T01:54:18.897Z,7.13
2018-11-01T01:55:18.819Z,7.16
2018-11-01T01:56:18.739Z,6.96
2018-11-01T01:57:18.659Z,6.87
2018-11-01T01:58:18.679Z,6.91
2018-11-01T01:59:18.499Z,6.91
2018-11-01T02:00:18.421Z,6.96
2018-11-01T02:01:18.340Z,7.01
2018-11-01T02:02:18.259Z,7.19
2018-11-01T02:03:18.180Z,7.29
2018-11-01T02:04:18.102Z,7.09
2018-11-01T02:05:18.021Z,7.05
2018-11-01T02:06:17.941Z,7.08
2018-11-01T02:07:17.861Z,7.12
2018-11-01T02:08:17.782Z,7.13
2018-11-01T02:09:17.702Z,7.08
2018-11-01T02:10:17.626Z,7.17
2018-11-01T02:11:17.544Z,7.11
2018-11-01T02:12:17.464Z,7.09
2018-11-01T02:13:17.384Z,6.96
2018-11-01T02:14:17.354Z,6.83
2018-11-01T02:15:17.225Z,6.86
2018-11-01T02:16:17.144Z,6.90
2018-11-01T02:17:17.064Z,6.78
2018-11-01T02:18:16.984Z,6.72
2018-11-01T02:19:17.005Z,6.78
2018-11-01T02:20:16.825Z,6.80
2018-11-01T02:21:16.744Z,6.84
2018-11-01T02:22:16.664Z,6.80
2018-11-01T02:23:16.584Z,6.76
2018-11-01T02:24:16.605Z,6.86
2018-11-01T02:25:16.426Z,6.78
2018-11-01T02:26:16.343Z,6.78
2018-11-01T02:27:16.263Z,6.80
2018-11-01T02:28:16.185Z,6.68
2018-11-01T02:29:16.104Z,6.75
2018-11-01T02:30:16.274Z,6.80
2018-11-01T02:31:15.947Z,6.80
2018-11-01T02:32:15.869Z,6.78
2018-11-01T02:33:15.786Z,6.78
2018-11-01T02:34:15.708Z,6.76
2018-11-01T02:35:15.624Z,6.69
2018-11-01T02:36:15.644Z,6.72
2018-11-01T02:37:15.468Z,6.70
2018-11-01T02:38:15.515Z,6.66
2018-11-01T02:39:15.304Z,6.59
2018-11-01T02:40:15.224Z,6.48
2018-11-01T02:41:15.193Z,6.44
2018-11-01T02:42:15.062Z,6.42
2018-11-01T02:43:14.983Z,6.29
2018-11-01T02:44:14.903Z,6.17
2018-11-01T02:45:14.824Z,6.07
2018-11-01T02:46:14.743Z,6.08
2018-11-01T02:47:14.664Z,6.10
2018-11-01T02:48:14.589Z,6.03
2018-11-01T02:49:14.502Z,5.97
2018-11-01T02:50:14.423Z,6.00
2018-11-01T02:51:14.340Z,6.00
2018-11-01T02:52:14.265Z,6.04
2018-11-01T02:53:14.181Z,5.92
2018-11-01T02:54:14.099Z,5.96
2018-11-01T02:55:14.030Z,5.92
2018-11-01T02:56:14.191Z,6.00
2018-11-01T02:57:13.858Z,5.88
2018-11-01T02:58:13.777Z,5.93
2018-11-01T02:59:13.697Z,5.90
2018-11-01T03:00:13.709Z,5.88
2018-11-01T03:01:13.536Z,5.78
2018-11-01T03:02:13.455Z,5.75
2018-11-01T03:03:13.375Z,5.63
2018-11-01T03:04:13.294Z,5.63
2018-11-01T03:05:13.222Z,5.63
2018-11-01T03:06:13.132Z,5.53
2018-11-01T03:07:13.302Z,5.59
2018-11-01T03:08:12.971Z,5.71
2018-11-01T03:09:12.889Z,5.68
2018-11-01T03:10:12.809Z,5.65
2018-11-01T03:11:12.728Z,5.63
2018-11-01T03:12:12.698Z,5.75
2018-11-01T03:13:12.567Z,5.67
2018-11-01T03:14:12.485Z,5.75
2018-11-01T03:15:12.405Z,5.65
2018-11-01T03:16:12.323Z,5.67
2018-11-01T03:17:12.299Z,5.54
2018-11-01T03:18:12.162Z,5.57
2018-11-01T03:19:12.081Z,5.59
2018-11-01T03:20:12.000Z,5.60
2018-11-01T03:21:11.920Z,5.49
2018-11-01T03:22:11.951Z,5.54
2018-11-01T03:23:11.757Z,5.54
2018-11-01T03:24:11.678Z,5.34
2018-11-01T03:25:11.596Z,5.52
2018-11-01T03:26:11.549Z,5.44
2018-11-01T03:27:11.439Z,5.50
2018-11-01T03:28:11.353Z,5.45
2018-11-01T03:29:11.273Z,5.34
2018-11-01T03:30:11.199Z,5.36
2018-11-01T03:31:11.111Z,5.31
2018-11-01T03:32:11.030Z,5.28
2018-11-01T03:33:10.950Z,5.23
2018-11-01T03:34:10.879Z,5.29
2018-11-01T03:35:10.813Z,5.26
2018-11-01T03:36:10.706Z,5.28
2018-11-01T03:37:10.625Z,5.21
2018-11-01T03:38:10.646Z,5.18
2018-11-01T03:39:10.462Z,5.18
2018-11-01T03:40:10.381Z,5.26
2018-11-01T03:41:10.308Z,5.24
2018-11-01T03:42:10.218Z,5.26
2018-11-01T03:43:10.138Z,5.23
2018-11-01T03:44:10.057Z,5.34
2018-11-01T03:45:09.976Z,5.34
2018-11-01T03:46:09.895Z,5.35
2018-11-01T03:47:09.813Z,5.34
2018-11-01T03:48:09.732Z,5.41
2018-11-01T03:49:09.652Z,5.49
2018-11-01T03:50:09.570Z,5.47
2018-11-01T03:51:09.489Z,5.52
2018-11-01T03:52:09.408Z,5.63
2018-11-01T03:53:09.427Z,5.81
2018-11-01T03:54:09.245Z,5.89
2018-11-01T03:55:09.165Z,5.89
2018-11-01T03:56:09.084Z,5.90
2018-11-01T03:57:09.004Z,5.89
2018-11-01T03:58:08.921Z,5.80
2018-11-01T03:59:08.842Z,5.80
2018-11-01T04:00:08.760Z,5.85
2018-11-01T04:01:08.681Z,5.78
2018-11-01T04:02:08.598Z,5.72
2018-11-01T04:03:08.517Z,5.75
2018-11-01T04:04:08.437Z,5.71
2018-11-01T04:05:08.356Z,5.72
2018-11-01T04:06:08.275Z,5.62
2018-11-01T04:07:08.194Z,5.62
2018-11-01T04:08:08.114Z,5.59
2018-11-01T04:09:08.033Z,5.57
2018-11-01T04:10:07.958Z,5.54
2018-11-01T04:11:07.877Z,5.59
2018-11-01T04:12:07.790Z,5.49
2018-11-01T04:13:07.711Z,5.56
2018-11-01T04:14:07.878Z,5.49
2018-11-01T04:15:07.585Z,5.50
2018-11-01T04:16:07.467Z,5.56
2018-11-01T04:17:07.525Z,5.41
2018-11-01T04:18:07.306Z,5.49
2018-11-01T04:19:07.224Z,5.47
2018-11-01T04:20:07.146Z,5.50
2018-11-01T04:21:07.063Z,5.36
2018-11-01T04:22:06.984Z,5.36
2018-11-01T04:23:06.914Z,5.38
2018-11-01T04:24:06.820Z,5.49
2018-11-01T04:25:06.739Z,5.47
2018-11-01T04:26:06.657Z,5.35
2018-11-01T04:27:06.575Z,5.38
2018-11-01T04:28:06.496Z,5.34
2018-11-01T04:29:06.415Z,5.26
2018-11-01T04:30:06.585Z,5.34
2018-11-01T04:31:06.254Z,5.32
2018-11-01T04:32:06.171Z,5.29
2018-11-01T04:33:06.150Z,5.26
2018-11-01T04:34:06.010Z,5.29
2018-11-01T04:35:05.928Z,5.34
2018-11-01T04:36:05.914Z,5.41
2018-11-01T04:37:05.768Z,5.36
2018-11-01T04:38:05.685Z,5.44
2018-11-01T04:39:05.609Z,5.49
2018-11-01T04:40:05.524Z,5.39
2018-11-01T04:41:05.443Z,5.36
2018-11-01T04:42:05.363Z,5.31
2018-11-01T04:43:05.280Z,5.32
2018-11-01T04:44:05.214Z,5.36
2018-11-01T04:45:05.126Z,5.28
2018-11-01T04:46:05.064Z,5.29
2018-11-01T04:47:04.964Z,5.32
2018-11-01T04:48:04.876Z,5.26
2018-11-01T04:49:04.796Z,5.28
2018-11-01T04:50:04.714Z,5.21
2018-11-01T04:51:04.632Z,5.21
2018-11-01T04:52:04.552Z,5.16
2018-11-01T04:53:04.472Z,5.24
2018-11-01T04:54:04.389Z,5.23
2018-11-01T04:55:04.308Z,5.35
2018-11-01T04:56:04.228Z,5.23
2018-11-01T04:57:04.147Z,5.21
2018-11-01T04:58:04.064Z,5.34
2018-11-01T04:59:03.984Z,5.24
2018-11-01T05:00:03.902Z,5.36
2018-11-01T05:01:03.821Z,5.34
2018-11-01T05:02:03.741Z,5.38
2018-11-01T05:03:03.659Z,5.35
2018-11-01T05:04:03.579Z,5.34
2018-11-01T05:05:03.562Z,5.35
2018-11-01T05:06:03.415Z,5.41
2018-11-01T05:07:03.334Z,5.35
2018-11-01T05:08:03.256Z,5.36
2018-11-01T05:09:03.172Z,5.39
2018-11-01T05:10:03.091Z,5.31
2018-11-01T05:11:03.012Z,5.38
2018-11-01T05:12:02.930Z,5.39
2018-11-01T05:13:02.853Z,5.41
2018-11-01T05:14:02.766Z,5.47
2018-11-01T05:15:02.709Z,5.41
2018-11-01T05:16:02.854Z,5.36
2018-11-01T05:17:02.525Z,5.36
2018-11-01T05:18:02.446Z,5.35
2018-11-01T05:19:02.362Z,5.36
2018-11-01T05:20:02.324Z,5.38
2018-11-01T05:21:02.200Z,5.39
2018-11-01T05:22:02.118Z,5.35
2018-11-01T05:23:02.038Z,5.41
2018-11-01T05:24:01.956Z,5.45
2018-11-01T05:25:01.876Z,5.54
2018-11-01T05:26:01.991Z,5.56
2018-11-01T05:27:01.718Z,5.56
2018-11-01T05:28:01.634Z,5.47
2018-11-01T05:29:01.552Z,5.56
2018-11-01T05:30:01.470Z,5.54
2018-11-01T05:31:01.393Z,5.56
2018-11-01T05:32:01.310Z,5.53
2018-11-01T05:33:01.230Z,5.59
2018-11-01T05:34:01.147Z,5.57
2018-11-01T05:35:01.066Z,5.62
2018-11-01T05:36:00.986Z,5.62
2018-11-01T05:37:00.905Z,5.59
2018-11-01T05:38:00.834Z,5.54
2018-11-01T05:39:00.743Z,5.56
2018-11-01T05:40:00.663Z,5.70
2018-11-01T05:41:00.582Z,5.70
2018-11-01T05:42:00.508Z,5.59
2018-11-01T05:43:00.420Z,5.54
2018-11-01T05:44:00.340Z,5.52
2018-11-01T05:45:00.259Z,5.56
2018-11-01T05:46:00.177Z,5.53
2018-11-01T05:47:00.102Z,5.50
2018-11-01T05:48:00.066Z,5.52
2018-11-01T05:48:59.935Z,5.53
2018-11-01T05:49:59.853Z,5.49
2018-11-01T05:50:59.773Z,5.39
2018-11-01T05:51:59.691Z,5.38
2018-11-01T05:52:59.612Z,5.42
2018-11-01T05:53:59.531Z,5.53
2018-11-01T05:54:59.453Z,5.47
2018-11-01T05:55:59.370Z,5.52
2018-11-01T05:56:59.289Z,5.49
2018-11-01T05:57:59.208Z,5.41
2018-11-01T05:58:59.126Z,5.50
2018-11-01T05:59:59.155Z,5.38
2018-11-01T06:00:58.965Z,5.45
2018-11-01T06:01:58.884Z,5.44
2018-11-01T06:02:58.802Z,5.56
2018-11-01T06:03:58.822Z,5.53
2018-11-01T06:04:58.642Z,5.65
2018-11-01T06:05:58.561Z,5.59
2018-11-01T06:06:58.481Z,5.67
2018-11-01T06:07:58.400Z,5.65
2018-11-01T06:08:58.317Z,5.75
2018-11-01T06:09:58.236Z,5.65
2018-11-01T06:10:58.157Z,5.65
2018-11-01T06:11:58.075Z,5.72
2018-11-01T06:12:57.995Z,5.72
2018-11-01T06:13:58.164Z,5.75
2018-11-01T06:14:57.833Z,5.72
2018-11-01T06:15:57.754Z,5.74
2018-11-01T06:16:57.675Z,5.74
2018-11-01T06:17:57.594Z,5.74
2018-11-01T06:18:57.512Z,5.75
2018-11-01T06:19:57.431Z,5.74
2018-11-01T06:20:57.350Z,5.74
2018-11-01T06:21:57.267Z,5.72
2018-11-01T06:22:57.188Z,5.78
2018-11-01T06:23:57.108Z,5.80
2018-11-01T06:24:57.029Z,5.70
2018-11-01T06:25:56.948Z,5.63
2018-11-01T06:26:56.867Z,5.50
2018-11-01T06:27:56.785Z,5.60
2018-11-01T06:28:56.708Z,5.54
2018-11-01T06:29:56.624Z,5.57
2018-11-01T06:30:56.543Z,5.60
2018-11-01T06:31:56.465Z,5.74
2018-11-01T06:32:56.381Z,5.85
2018-11-01T06:33:56.301Z,5.83
2018-11-01T06:34:56.220Z,5.81
2018-11-01T06:35:56.141Z,5.78
2018-11-01T06:36:56.060Z,5.78
2018-11-01T06:37:55.979Z,5.74
2018-11-01T06:38:55.898Z,5.70
2018-11-01T06:39:55.817Z,5.75
2018-11-01T06:40:55.739Z,5.72
2018-11-01T06:41:55.656Z,5.72
2018-11-01T06:42:55.575Z,5.68
2018-11-01T06:43:55.496Z,5.65
2018-11-01T06:44:55.483Z,5.78
2018-11-01T06:45:55.332Z,5.78
2018-11-01T06:46:55.252Z,5.81
2018-11-01T06:47:55.173Z,5.83
2018-11-01T06:48:55.092Z,5.90
2018-11-01T06:49:55.010Z,5.86
2018-11-01T06:50:54.930Z,5.89
2018-11-01T06:51:54.849Z,5.95
2018-11-01T06:52:54.771Z,5.96
2018-11-01T06:53:54.686Z,5.99
2018-11-01T06:54:54.608Z,6.06
2018-11-01T06:55:54.526Z,6.14
2018-11-01T06:56:54.445Z,6.21
2018-11-01T06:57:54.366Z,6.24
2018-11-01T06:58:54.301Z,6.30
2018-11-01T06:59:54.208Z,6.41
2018-11-01T07:00:54.125Z,6.44
2018-11-01T07:01:54.044Z,6.51
2018-11-01T07:02:53.962Z,6.52
2018-11-01T07:03:53.883Z,6.65
2018-11-01T07:04:53.803Z,6.66
2018-11-01T07:05:53.722Z,6.65
2018-11-01T07:06:53.644Z,6.59
2018-11-01T07:07:53.561Z,6.68
2018-11-01T07:08:53.482Z,6.72
2018-11-01T07:09:53.400Z,6.76
2018-11-01T07:10:53.326Z,6.75
2018-11-01T07:11:53.240Z,6.83
2018-11-01T07:12:53.161Z,6.93
2018-11-01T07:13:53.080Z,6.87
2018-11-01T07:14:52.999Z,6.93
2018-11-01T07:15:52.924Z,6.90
2018-11-01T07:16:52.850Z,6.91
2018-11-01T07:17:52.758Z,6.84
2018-11-01T07:18:52.678Z,6.93
2018-11-01T07:19:52.599Z,6.96
2018-11-01T07:20:52.520Z,7.06
2018-11-01T07:21:52.438Z,7.08
2018-11-01T07:22:52.359Z,7.11
2018-11-01T07:23:52.279Z,7.11
2018-11-01T07:24:52.200Z,7.19
2018-11-01T07:25:52.217Z,7.17
2018-11-01T07:26:52.040Z,7.19
2018-11-01T07:27:51.961Z,7.11
2018-11-01T07:28:51.884Z,7.01
2018-11-01T07:29:51.802Z,6.93
2018-11-01T07:30:51.722Z,6.91
2018-11-01T07:31:51.643Z,6.91
2018-11-01T07:32:51.728Z,6.87
2018-11-01T07:33:51.484Z,6.87
2018-11-01T07:34:51.404Z,6.87
2018-11-01T07:35:51.329Z,6.75
2018-11-01T07:36:51.245Z,6.87
2018-11-01T07:37:51.164Z,6.84
2018-11-01T07:38:51.087Z,6.84
2018-11-01T07:39:51.048Z,6.93
2018-11-01T07:40:50.927Z,7.01
2018-11-01T07:41:50.846Z,6.96
2018-11-01T07:42:50.767Z,7.08
2018-11-01T07:43:50.689Z,7.11
2018-11-01T07:44:50.609Z,7.09
2018-11-01T07:45:50.531Z,7.13
2018-11-01T07:46:50.450Z,7.27
2018-11-01T07:47:50.376Z,7.31
2018-11-01T07:48:50.438Z,7.29
2018-11-01T07:49:50.212Z,7.35
2018-11-01T07:50:50.133Z,7.49
2018-11-01T07:51:50.054Z,7.47
2018-11-01T07:52:50.046Z,7.42
2018-11-01T07:53:49.895Z,7.57
2018-11-01T07:54:49.815Z,7.62
2018-11-01T07:55:49.736Z,7.56
2018-11-01T07:56:49.662Z,7.63
2018-11-01T07:57:49.579Z,7.59
2018-11-01T07:58:49.499Z,7.63
2018-11-01T07:59:49.421Z,7.53
2018-11-01T08:00:49.341Z,7.57
2018-11-01T08:01:49.261Z,7.68
2018-11-01T08:02:49.183Z,7.59
2018-11-01T08:03:49.103Z,7.76
2018-11-01T08:04:49.027Z,7.68
2018-11-01T08:05:49.064Z,7.70
2018-11-01T08:06:48.967Z,7.75
2018-11-01T08:07:48.791Z,7.75
2018-11-01T08:08:48.709Z,7.81
2018-11-01T08:09:48.632Z,7.76
2018-11-01T08:10:48.551Z,7.64
2018-11-01T08:11:48.567Z,7.72
2018-11-01T08:12:48.395Z,7.76
2018-11-01T08:13:48.313Z,7.68
2018-11-01T08:14:48.234Z,7.76
2018-11-01T08:15:48.156Z,7.83
2018-11-01T08:16:48.077Z,7.85
2018-11-01T08:17:47.997Z,7.88
2018-11-01T08:18:47.923Z,7.85
2018-11-01T08:19:48.042Z,7.88
2018-11-01T08:20:47.827Z,7.86
2018-11-01T08:21:47.683Z,7.96
2018-11-01T08:22:47.603Z,7.90
2018-11-01T08:23:47.525Z,7.75
2018-11-01T08:24:47.446Z,7.85
2018-11-01T08:25:47.366Z,7.68
2018-11-01T08:26:47.288Z,7.73
2018-11-01T08:27:47.262Z,7.78
2018-11-01T08:28:47.132Z,7.85
2018-11-01T08:29:47.052Z,7.88
2018-11-01T08:30:46.973Z,7.86
2018-11-01T08:31:46.894Z,7.97
2018-11-01T08:32:46.820Z,8.09
2018-11-01T08:33:46.738Z,8.01
2018-11-01T08:34:46.660Z,7.96
2018-11-01T08:35:46.583Z,8.04
2018-11-01T08:36:46.503Z,8.03
2018-11-01T08:37:46.424Z,8.15
2018-11-01T08:38:46.345Z,8.19
2018-11-01T08:39:46.267Z,8.18
2018-11-01T08:40:46.189Z,8.25
2018-11-01T08:41:46.109Z,8.33
2018-11-01T08:42:46.034Z,8.39
2018-11-01T08:43:45.953Z,8.40
2018-11-01T08:44:45.876Z,8.58
2018-11-01T08:45:45.795Z,8.70
2018-11-01T08:46:45.723Z,8.79
2018-11-01T08:47:45.640Z,8.95
2018-11-01T08:48:45.561Z,9.02
2018-11-01T08:49:45.483Z,9.10
2018-11-01T08:50:45.405Z,9.13
2018-11-01T08:51:45.328Z,9.24
2018-11-01T08:52:45.250Z,9.32
2018-11-01T08:53:45.172Z,9.32
2018-11-01T08:54:45.097Z,9.29
2018-11-01T08:55:45.015Z,9.40
2018-11-01T08:56:44.938Z,9.35
2018-11-01T08:57:44.860Z,9.42
2018-11-01T08:58:44.782Z,9.47
2018-11-01T08:59:44.704Z,9.46
2018-11-01T09:00:44.627Z,9.42
2018-11-01T09:01:44.547Z,9.58
2018-11-01T09:02:44.470Z,9.53
2018-11-01T09:03:44.400Z,9.60
2018-11-01T09:04:44.314Z,9.56
2018-11-01T09:05:44.235Z,9.64
2018-11-01T09:06:44.158Z,9.72
2018-11-01T09:07:44.205Z,9.67
2018-11-01T09:08:44.005Z,9.71
2018-11-01T09:09:43.925Z,9.74
2018-11-01T09:10:43.847Z,9.72
2018-11-01T09:11:43.771Z,9.75
2018-11-01T09:12:43.757Z,9.74
2018-11-01T09:13:43.615Z,9.71
2018-11-01T09:14:43.542Z,9.68
2018-11-01T09:15:43.462Z,9.80
2018-11-01T09:16:43.387Z,9.67
2018-11-01T09:17:43.326Z,9.74
2018-11-01T09:18:43.230Z,9.72
2018-11-01T09:19:43.151Z,9.83
2018-11-01T09:20:43.073Z,9.74
2018-11-01T09:21:42.995Z,9.71
2018-11-01T09:22:42.918Z,9.75
2018-11-01T09:23:42.847Z,9.63
2018-11-01T09:24:42.764Z,9.56
2018-11-01T09:25:42.685Z,9.49
2018-11-01T09:26:42.637Z,9.43
2018-11-01T09:27:42.537Z,9.25
2018-11-01T09:28:42.454Z,9.20
2018-11-01T09:29:42.375Z,9.05
2018-11-01T09:30:42.302Z,9.02
2018-11-01T09:31:42.221Z,8.90
2018-11-01T09:32:42.146Z,8.97
2018-11-01T09:33:42.076Z,8.98
2018-11-01T09:34:41.988Z,9.00
2018-11-01T09:35:41.978Z,8.97
2018-11-01T09:36:41.833Z,9.06
2018-11-01T09:37:41.756Z,9.05
2018-11-01T09:38:41.678Z,9.17
2018-11-01T09:39:41.620Z,9.25
2018-11-01T09:40:41.522Z,9.29
2018-11-01T09:41:41.444Z,9.38
2018-11-01T09:42:41.366Z,9.46
2018-11-01T09:43:41.290Z,9.50
2018-11-01T09:44:41.212Z,9.65
2018-11-01T09:45:41.133Z,9.64
2018-11-01T09:46:41.406Z,9.74
2018-11-01T09:47:41.336Z,9.79
2018-11-01T09:48:40.902Z,9.82
2018-11-01T09:49:40.823Z,9.72
2018-11-01T09:50:40.746Z,9.86
2018-11-01T09:51:40.675Z,9.83
2018-11-01T09:52:40.595Z,9.92
2018-11-01T09:53:40.516Z,10.01
2018-11-01T09:54:40.436Z,10.06
2018-11-01T09:55:40.491Z,10.10
2018-11-01T09:56:40.288Z,10.13
2018-11-01T09:57:40.205Z,10.18
2018-11-01T09:58:40.128Z,10.26
2018-11-01T09:59:40.053Z,10.29
2018-11-01T10:00:39.974Z,10.37
2018-11-01T10:01:39.897Z,10.46
2018-11-01T10:02:39.821Z,10.41
2018-11-01T10:03:39.745Z,10.56
2018-11-01T10:04:39.667Z,10.55
2018-11-01T10:05:39.590Z,10.58
2018-11-01T10:06:39.513Z,10.59
2018-11-01T10:07:39.436Z,10.60
2018-11-01T10:08:39.361Z,10.59
2018-11-01T10:09:39.283Z,10.56
2018-11-01T10:10:39.208Z,10.69
2018-11-01T10:11:39.131Z,10.53
2018-11-01T10:12:39.054Z,10.56
2018-11-01T10:13:38.976Z,10.56
2018-11-01T10:14:38.899Z,10.58
2018-11-01T10:15:39.074Z,10.58
2018-11-01T10:16:38.991Z,10.56
2018-11-01T10:17:39.343Z,10.56
2018-11-01T10:18:38.593Z,10.55
2018-11-01T10:19:38.515Z,10.56
2018-11-01T10:20:38.493Z,10.51
2018-11-01T10:21:38.377Z,10.55
2018-11-01T10:22:38.365Z,10.55
2018-11-01T10:23:38.209Z,10.49
2018-11-01T10:24:38.134Z,10.51
2018-11-01T10:25:38.056Z,10.55
2018-11-01T10:26:37.981Z,10.53
2018-11-01T10:27:37.978Z,10.56
2018-11-01T10:28:37.827Z,10.55
2018-11-01T10:29:37.848Z,10.53
2018-11-01T10:30:37.672Z,10.56
2018-11-01T10:31:37.596Z,10.58
2018-11-01T10:32:37.519Z,10.56
2018-11-01T10:33:37.467Z,10.69
2018-11-01T10:34:37.366Z,10.85
2018-11-01T10:35:37.288Z,10.87
2018-11-01T10:36:37.212Z,10.91
2018-11-01T10:37:37.135Z,10.84
2018-11-01T10:38:37.060Z,10.78
2018-11-01T10:39:36.982Z,10.95
2018-11-01T10:40:36.913Z,10.99
2018-11-01T10:41:36.829Z,10.99
2018-11-01T10:42:36.753Z,10.98
2018-11-01T10:43:36.675Z,10.99
2018-11-01T10:44:36.600Z,11.10
2018-11-01T10:45:36.522Z,11.14
2018-11-01T10:46:36.447Z,11.29
2018-11-01T10:47:36.429Z,11.36
2018-11-01T10:48:36.295Z,11.43
2018-11-01T10:49:36.219Z,11.36
2018-11-01T10:50:36.143Z,11.39
2018-11-01T10:51:36.067Z,11.29
2018-11-01T10:52:35.990Z,11.18
2018-11-01T10:53:35.917Z,11.23
2018-11-01T10:54:35.838Z,11.17
2018-11-01T10:55:35.762Z,11.29
2018-11-01T10:56:35.685Z,11.18
2018-11-01T10:57:35.608Z,11.26
2018-11-01T10:58:35.531Z,11.13
2018-11-01T10:59:35.458Z,11.20
2018-11-01T11:00:35.459Z,11.17
2018-11-01T11:01:35.305Z,11.18
2018-11-01T11:02:35.328Z,11.17
2018-11-01T11:03:35.154Z,11.24
2018-11-01T11:04:35.076Z,11.31
2018-11-01T11:05:35.000Z,11.31
2018-11-01T11:06:34.989Z,11.31
2018-11-01T11:07:34.850Z,11.29
2018-11-01T11:08:34.773Z,11.32
2018-11-01T11:09:34.696Z,11.21
2018-11-01T11:10:34.619Z,11.24
2018-11-01T11:11:34.544Z,11.23
2018-11-01T11:12:34.468Z,11.13
2018-11-01T11:13:34.392Z,11.29
2018-11-01T11:14:34.377Z,11.31
2018-11-01T11:15:34.242Z,11.34
2018-11-01T11:16:34.164Z,11.35
2018-11-01T11:17:34.087Z,11.39
2018-11-01T11:18:34.062Z,11.35
2018-11-01T11:19:33.936Z,11.31
2018-11-01T11:20:34.132Z,11.23
2018-11-01T11:21:33.784Z,11.26
2018-11-01T11:22:33.711Z,11.35
2018-11-01T11:23:33.634Z,11.42
2018-11-01T11:24:33.557Z,11.47
2018-11-01T11:25:33.481Z,11.49
2018-11-01T11:26:33.405Z,11.35
2018-11-01T11:27:33.337Z,11.32
2018-11-01T11:28:33.257Z,11.38
2018-11-01T11:29:33.181Z,11.38
2018-11-01T11:30:33.198Z,11.29
2018-11-01T11:31:33.026Z,11.28
2018-11-01T11:32:32.953Z,11.35
2018-11-01T11:33:32.873Z,11.43
2018-11-01T11:34:32.799Z,11.35
2018-11-01T11:35:32.723Z,11.38
2018-11-01T11:36:32.647Z,11.36
2018-11-01T11:37:32.570Z,11.38
2018-11-01T11:38:32.494Z,11.43
2018-11-01T11:39:32.455Z,11.31
2018-11-01T11:40:32.341Z,11.46
2018-11-01T11:41:32.265Z,11.42
2018-11-01T11:42:32.189Z,11.38
2018-11-01T11:43:32.113Z,11.43
2018-11-01T11:44:32.036Z,11.35
2018-11-01T11:45:31.960Z,11.56
2018-11-01T11:46:31.884Z,11.50
2018-11-01T11:47:31.809Z,11.68
2018-11-01T11:48:31.737Z,11.81
2018-11-01T11:49:31.659Z,12.02
2018-11-01T11:50:31.582Z,12.11
2018-11-01T11:51:31.698Z,12.03
2018-11-01T11:52:31.431Z,12.02
2018-11-01T11:53:31.355Z,11.78
2018-11-01T11:54:31.278Z,11.67
2018-11-01T11:55:31.203Z,11.53
2018-11-01T11:56:31.129Z,11.59
2018-11-01T11:57:31.053Z,11.68
2018-11-01T11:58:30.977Z,11.60
2018-11-01T11:59:30.903Z,11.57
2018-11-01T12:00:30.826Z,11.57
2018-11-01T12:01:30.753Z,11.57
2018-11-01T12:02:30.804Z,11.51
2018-11-01T12:03:30.600Z,11.53
2018-11-01T12:04:30.524Z,11.43
2018-11-01T12:05:30.705Z,11.35
2018-11-01T12:06:30.373Z,11.38
2018-11-01T12:07:30.297Z,11.43
2018-11-01T12:08:30.221Z,11.42
2018-11-01T12:09:30.147Z,11.42
2018-11-01T12:10:30.072Z,11.54
2018-11-01T12:11:29.994Z,11.43
2018-11-01T12:12:29.918Z,11.34
2018-11-01T12:13:29.841Z,11.26
2018-11-01T12:14:29.767Z,11.28
2018-11-01T12:15:29.690Z,11.36
2018-11-01T12:16:29.614Z,11.41
2018-11-01T12:17:29.538Z,11.53
2018-11-01T12:18:29.464Z,11.67
2018-11-01T12:19:29.386Z,11.75
2018-11-01T12:20:29.311Z,11.81
2018-11-01T12:21:29.234Z,11.86
2018-11-01T12:22:29.248Z,11.83
2018-11-01T12:23:29.084Z,11.76
2018-11-01T12:24:29.007Z,11.79
2018-11-01T12:25:28.934Z,11.76
2018-11-01T12:26:28.856Z,11.78
2018-11-01T12:27:28.782Z,11.71
2018-11-01T12:28:28.834Z,11.79
2018-11-01T12:29:28.628Z,11.68
2018-11-01T12:30:28.552Z,11.71
2018-11-01T12:31:28.482Z,11.65
2018-11-01T12:32:28.406Z,11.67
2018-11-01T12:33:28.329Z,11.57
2018-11-01T12:34:28.249Z,11.56
2018-11-01T12:35:28.198Z,11.51
2018-11-01T12:36:28.100Z,11.43
2018-11-01T12:37:28.028Z,11.38
2018-11-01T12:38:27.947Z,11.32
2018-11-01T12:39:27.871Z,11.34
2018-11-01T12:40:27.798Z,11.35
2018-11-01T12:41:27.796Z,11.20
2018-11-01T12:42:27.644Z,11.21
2018-11-01T12:43:27.567Z,11.21
2018-11-01T12:44:27.492Z,11.20
2018-11-01T12:45:27.414Z,11.16
2018-11-01T12:46:27.339Z,11.20
2018-11-01T12:47:27.362Z,11.16
2018-11-01T12:48:27.187Z,11.26
2018-11-01T12:49:27.109Z,11.24
2018-11-01T12:50:27.085Z,11.16
2018-11-01T12:51:26.958Z,11.18
2018-11-01T12:52:26.958Z,11.16
2018-11-01T12:53:26.805Z,11.16
2018-11-01T12:54:26.728Z,11.14
2018-11-01T12:55:26.653Z,11.16
2018-11-01T12:56:26.674Z,11.05
2018-11-01T12:57:26.501Z,11.14
2018-11-01T12:58:26.575Z,11.05
2018-11-01T12:59:26.348Z,11.10
2018-11-01T13:00:26.277Z,11.02
2018-11-01T13:01:26.195Z,11.05
2018-11-01T13:02:26.204Z,11.11
2018-11-01T13:03:26.043Z,10.98
2018-11-01T13:04:25.968Z,11.00
2018-11-01T13:05:25.908Z,10.99
2018-11-01T13:06:25.813Z,10.92
2018-11-01T13:07:25.737Z,10.95
2018-11-01T13:08:25.661Z,10.96
2018-11-01T13:09:25.585Z,10.92
2018-11-01T13:10:25.546Z,11.00